Time;durP1;ratioP1;P1;durP2;ratioP2;P2;SDS_P1;SDS_P2;PMS_P1;PMS_P2;Temp;Humidity;BMP_temperature;BMP_pressure;BME280_temperature;BME280_humidity;BME280_pressure;Samples;Min_cycle;Max_cycle;Signal;HPM_P1;HPM_P2
2022/05/28 00:01:26;;;;;;;8.68;2.83;;;;;;;11.91;60.79;102107.25;5067591;28;20055;-88
2022/05/28 00:03:53;;;;;;;9.48;3.15;;;;;;;11.91;61.47;102109.03;5065357;28;20054;-87
2022/05/28 00:06:21;;;;;;;7.82;3.33;;;;;;;11.99;60.99;102107.94;5085461;28;20050;-88
2022/05/28 00:08:48;;;;;;;11.52;3.47;;;;;;;11.99;60.32;102105.28;5083865;28;20025;-88
2022/05/28 00:11:23;;;;;;;6.63;2.67;;;;;;;12.02;61.96;102104.31;5087032;28;20032;-87
2022/05/28 00:13:49;;;;;;;11.32;3.20;;;;;;;12.00;60.90;102095.56;5067771;28;20019;-87
2022/05/28 00:16:16;;;;;;;10.90;2.72;;;;;;;12.02;62.31;102092.84;5068459;28;20602;-87
2022/05/28 00:18:42;;;;;;;7.13;2.42;;;;;;;12.06;61.20;102092.72;5065223;28;20052;-87
2022/05/28 00:21:09;;;;;;;10.93;2.83;;;;;;;12.03;60.83;102083.97;5074120;28;20038;-88
2022/05/28 00:23:35;;;;;;;7.38;2.88;;;;;;;12.00;61.46;102087.59;5085441;28;20063;-87
2022/05/28 00:26:02;;;;;;;11.38;3.22;;;;;;;12.04;61.22;102083.97;5087232;28;20044;-87
2022/05/28 00:28:28;;;;;;;8.30;3.17;;;;;;;12.03;61.10;102078.69;5068593;28;20024;-87
2022/05/28 00:30:53;;;;;;;11.48;3.40;;;;;;;12.05;61.04;102092.78;5085428;28;20768;-88
2022/05/28 00:33:18;;;;;;;11.55;3.13;;;;;;;12.12;63.90;102089.91;5066418;28;20443;-88
2022/05/28 00:35:44;;;;;;;9.07;3.33;;;;;;;12.13;61.39;102088.16;5084594;28;20032;-88
2022/05/28 00:38:09;;;;;;;11.85;3.30;;;;;;;12.19;60.76;102074.72;5066811;28;20364;-87
2022/05/28 00:40:34;;;;;;;11.25;3.22;;;;;;;12.21;60.78;102078.19;5084515;28;20503;-87
2022/05/28 00:43:02;;;;;;;9.85;3.15;;;;;;;12.22;60.35;102080.81;5081482;28;20039;-87
2022/05/28 00:45:29;;;;;;;10.13;3.40;;;;;;;12.17;60.71;102076.53;5081700;28;20463;-88
2022/05/28 00:47:58;;;;;;;13.85;3.20;;;;;;;12.19;60.89;102075.59;5069988;28;20024;-88
2022/05/28 00:50:24;;;;;;;9.48;3.60;;;;;;;12.23;60.36;102079.03;5069613;28;20862;-88
2022/05/28 00:52:50;;;;;;;8.90;3.17;;;;;;;12.27;60.76;102077.19;5069189;28;20024;-88
2022/05/28 00:55:16;;;;;;;8.20;3.28;;;;;;;12.21;60.99;102071.09;5085385;28;20054;-87
2022/05/28 00:57:42;;;;;;;9.55;3.28;;;;;;;12.20;61.01;102068.50;5088093;28;20363;-88
2022/05/28 01:00:14;;;;;;;9.00;2.95;;;;;;;12.20;61.32;102068.50;5085721;28;20056;-87
2022/05/28 01:02:48;;;;;;;;;;;;;;;12.35;59.56;102067.22;5080139;28;20043;-88
2022/05/28 01:05:31;;;;;;;11.57;3.03;;;;;;;12.25;60.24;102070.13;5066199;28;19924;-88
2022/05/28 01:08:15;;;;;;;9.15;3.35;;;;;;;12.23;60.09;102071.09;5064438;28;20445;-88
2022/05/28 01:10:57;;;;;;;11.27;3.03;;;;;;;12.14;60.86;102072.19;5066731;28;20028;-88
2022/05/28 01:13:45;;;;;;;9.18;3.85;;;;;;;12.08;60.95;102066.22;5083045;28;20024;-88
2022/05/28 01:16:19;;;;;;;11.05;3.30;;;;;;;12.04;61.41;102065.41;5079137;28;20028;-88
2022/05/28 01:18:54;;;;;;;6.43;3.00;;;;;;;12.00;61.53;102059.31;5082795;28;20024;-88
2022/05/28 01:21:30;;;;;;;10.07;3.42;;;;;;;11.97;61.99;102063.81;5071750;28;20036;-88
2022/05/28 01:24:07;;;;;;;11.25;3.10;;;;;;;11.96;62.54;102064.72;5078191;28;20056;-88
2022/05/28 01:27:07;;;;;;;11.82;3.40;;;;;;;11.94;61.86;102064.78;5085172;28;20028;-88
2022/05/28 01:29:40;;;;;;;7.13;3.30;;;;;;;11.92;62.43;102060.41;5082201;28;20020;-88
2022/05/28 01:32:07;;;;;;;9.52;3.92;;;;;;;11.88;62.41;102053.44;5082822;28;20069;-87
2022/05/28 01:34:33;;;;;;;13.93;3.45;;;;;;;11.87;62.55;102057.03;5086450;28;20039;-88
2022/05/28 01:37:01;;;;;;;6.97;2.90;;;;;;;11.88;62.86;102056.09;5085521;28;20118;-88
2022/05/28 01:39:27;;;;;;;10.88;4.50;;;;;;;11.80;62.67;102044.78;5067054;28;20050;-88
2022/05/28 01:41:54;;;;;;;11.93;3.65;;;;;;;11.85;62.48;102050.91;5089850;28;20229;-89
2022/05/28 01:44:21;;;;;;;15.00;3.60;;;;;;;11.79;62.74;102045.72;5066721;28;20036;-88
2022/05/28 01:46:48;;;;;;;13.15;3.60;;;;;;;11.83;63.25;102050.06;5067225;28;20086;-88
2022/05/28 01:49:15;;;;;;;9.60;3.60;;;;;;;11.78;63.27;102049.28;5064152;28;20048;-89
2022/05/28 01:51:47;;;;;;;10.98;3.72;;;;;;;11.79;63.18;102051.88;5068230;28;20505;-88
2022/05/28 01:54:16;;;;;;;16.73;3.78;;;;;;;11.79;63.45;102054.53;5080909;28;20024;-88
2022/05/28 01:56:46;;;;;;;11.30;3.15;;;;;;;11.79;64.82;102054.53;5071524;28;20032;-88
2022/05/28 01:59:15;;;;;;;12.73;3.42;;;;;;;11.79;63.29;102062.47;5069348;28;20032;-88
2022/05/28 02:01:41;;;;;;;8.30;3.28;;;;;;;11.70;63.57;102055.66;5065505;28;20058;-88
2022/05/28 02:04:08;;;;;;;11.98;3.85;;;;;;;11.69;63.66;102059.19;5087731;28;20571;-88
2022/05/28 02:06:35;;;;;;;9.02;3.25;;;;;;;11.66;63.51;102048.69;5070548;28;20020;-88
2022/05/28 02:09:05;;;;;;;9.35;3.33;;;;;;;11.63;63.99;102053.19;5087516;28;20024;-88
2022/05/28 02:11:55;;;;;;;10.48;3.35;;;;;;;11.60;64.50;102056.78;5086620;28;20478;-88
2022/05/28 02:14:31;;;;;;;10.77;3.30;;;;;;;11.60;63.78;102056.78;5086455;28;20023;-88
2022/05/28 02:17:15;;;;;;;8.98;2.65;;;;;;;11.65;64.46;102059.31;5086478;28;20081;-89
2022/05/28 02:19:57;;;;;;;10.80;3.13;;;;;;;11.64;64.56;102060.22;5070622;28;20493;-88
2022/05/28 02:22:40;;;;;;;9.38;3.50;;;;;;;11.66;64.11;102058.44;5069839;28;20059;-88
2022/05/28 02:25:13;;;;;;;12.05;3.35;;;;;;;11.60;64.59;102051.47;5084735;28;20027;-88
2022/05/28 02:27:41;;;;;;;10.70;3.25;;;;;;;11.57;64.66;102056.88;5084893;28;20555;-89
2022/05/28 02:30:08;;;;;;;12.65;3.78;;;;;;;11.57;64.81;102056.88;5086434;28;20070;-88
2022/05/28 02:32:34;;;;;;;12.32;3.70;;;;;;;11.55;65.18;102048.06;5073601;28;20028;-88
2022/05/28 02:34:59;;;;;;;12.32;3.50;;;;;;;11.53;65.61;102046.38;5070444;28;20043;-88
2022/05/28 02:37:26;;;;;;;10.82;3.65;;;;;;;11.47;65.14;102044.75;5071720;28;20020;-88
2022/05/28 02:39:52;;;;;;;10.10;3.47;;;;;;;11.44;65.70;102044.84;5090720;28;20027;-88
2022/05/28 02:42:17;;;;;;;7.47;2.88;;;;;;;11.43;65.79;102045.75;5088651;28;20099;-88
2022/05/28 02:44:42;;;;;;;7.72;3.22;;;;;;;11.40;67.08;102035.22;5086942;28;20081;-89
2022/05/28 02:47:08;;;;;;;12.35;3.67;;;;;;;11.42;66.26;102036.94;5086090;28;20109;-88
2022/05/28 02:49:33;;;;;;;13.10;3.50;;;;;;;11.39;66.75;102038.78;5086032;28;20502;-88
2022/05/28 02:52:04;;;;;;;11.93;3.17;;;;;;;11.28;67.04;102025.78;5082227;28;20032;-88
2022/05/28 02:54:30;;;;;;;9.70;2.97;;;;;;;11.30;66.89;102021.34;5072252;28;20036;-87
2022/05/28 02:56:55;;;;;;;10.43;2.95;;;;;;;11.26;66.48;102024.97;5071765;28;20024;-88
2022/05/28 02:59:21;;;;;;;12.10;2.85;;;;;;;11.22;66.83;102026.81;5086196;28;20034;-88
2022/05/28 03:01:46;;;;;;;12.30;2.75;;;;;;;11.14;67.49;102026.09;5081817;28;20023;-88
2022/05/28 03:04:12;;;;;;;16.27;4.15;;;;;;;11.09;69.85;102030.63;5090069;28;20042;-88
2022/05/28 03:06:38;;;;;;;11.93;3.58;;;;;;;11.04;67.68;102021.94;5070277;28;20036;-89
2022/05/28 03:09:08;;;;;;;9.65;3.67;;;;;;;11.08;67.33;102026.25;5070215;28;20020;-88
2022/05/28 03:11:35;;;;;;;15.82;3.58;;;;;;;11.06;68.03;102024.56;5083328;28;20036;-88
2022/05/28 03:14:00;;;;;;;8.63;3.45;;;;;;;11.02;68.43;102022.91;5074258;28;20031;-88
2022/05/28 03:16:26;;;;;;;14.00;3.92;;;;;;;11.01;67.79;102024.69;5067294;28;20463;-88
2022/05/28 03:18:51;;;;;;;8.85;3.88;;;;;;;11.02;67.84;102038.78;5084886;28;20050;-88
2022/05/28 03:21:16;;;;;;;12.43;3.25;;;;;;;11.02;68.05;102038.78;5081271;28;20552;-89
2022/05/28 03:23:47;;;;;;;10.68;3.50;;;;;;;11.03;67.82;102036.09;5070386;28;20114;-88
2022/05/28 03:26:25;;;;;;;8.65;3.40;;;;;;;11.04;67.64;102034.31;5085187;28;20036;-89
2022/05/28 03:28:51;;;;;;;8.00;3.40;;;;;;;11.03;68.02;102040.50;5086145;28;20020;-88
2022/05/28 03:31:18;;;;;;;13.10;3.90;;;;;;;10.99;67.84;102037.91;5082837;28;20425;-88
2022/05/28 03:33:43;;;;;;;11.88;3.55;;;;;;;11.02;68.64;102037.00;5063471;28;20035;-88
2022/05/28 03:36:09;;;;;;;8.80;3.53;;;;;;;11.04;68.27;102043.13;5088472;28;20031;-88
2022/05/28 03:38:35;;;;;;;8.00;3.30;;;;;;;10.99;68.22;102029.13;5070678;28;20152;-88
2022/05/28 03:41:01;;;;;;;10.15;3.78;;;;;;;11.04;68.73;102043.13;5071002;28;20073;-88
2022/05/28 03:43:27;;;;;;;11.70;3.50;;;;;;;11.05;68.46;102033.41;5069988;28;20077;-89
2022/05/28 03:45:53;;;;;;;11.45;3.80;;;;;;;11.06;68.62;102043.97;5070159;28;20016;-87
2022/05/28 03:48:19;;;;;;;11.68;2.90;;;;;;;11.06;68.39;102045.75;5068367;28;20062;-88
2022/05/28 03:50:44;;;;;;;9.65;3.00;;;;;;;11.06;68.60;102046.63;5072781;28;20039;-88
2022/05/28 03:53:10;;;;;;;10.77;3.42;;;;;;;11.07;68.80;102047.47;5083548;28;20486;-88
2022/05/28 03:55:39;;;;;;;10.30;2.85;;;;;;;11.06;69.05;102049.25;5088006;28;20044;-89
2022/05/28 03:58:05;;;;;;;12.43;3.58;;;;;;;10.98;69.14;102051.19;5083642;28;20475;-89
2022/05/28 04:00:31;;;;;;;12.90;3.42;;;;;;;10.99;69.02;102051.16;5054996;28;20543;-87
2022/05/28 04:02:57;;;;;;;8.90;3.20;;;;;;;11.01;69.46;102052.91;5082988;28;20506;-89
2022/05/28 04:05:23;;;;;;;13.68;3.95;;;;;;;10.99;69.44;102045.00;5063950;28;20467;-88
2022/05/28 04:07:49;;;;;;;7.45;3.33;;;;;;;10.95;69.66;102052.13;5066925;28;20031;-89
2022/05/28 04:10:15;;;;;;;10.90;3.30;;;;;;;10.98;69.29;102054.72;5083651;28;20458;-87
2022/05/28 04:12:40;;;;;;;16.75;3.83;;;;;;;10.96;69.54;102053.03;5080283;28;20039;-88
2022/05/28 04:15:08;;;;;;;10.93;3.40;;;;;;;10.97;70.10;102057.41;5068948;28;20028;-87
2022/05/28 04:17:34;;;;;;;9.95;3.58;;;;;;;11.02;69.96;102055.53;5067470;28;20039;-88
2022/05/28 04:19:59;;;;;;;13.10;3.60;;;;;;;11.03;69.81;102061.69;5085626;28;20418;-88
2022/05/28 04:22:25;;;;;;;11.60;3.00;;;;;;;11.06;69.69;102057.19;5069011;28;20467;-88
2022/05/28 04:24:51;;;;;;;10.65;3.33;;;;;;;11.07;70.00;102052.78;5070698;28;20027;-89
2022/05/28 04:27:16;;;;;;;7.85;2.92;;;;;;;11.11;69.85;102057.09;5065159;28;20115;-88
2022/05/28 04:29:41;;;;;;;9.20;2.90;;;;;;;11.13;70.51;102066.72;5088507;28;20058;-88
2022/05/28 04:32:07;;;;;;;15.50;3.63;;;;;;;11.14;70.49;102068.47;5083079;28;20490;-87
2022/05/28 04:34:32;;;;;;;12.10;3.38;;;;;;;11.15;70.42;102069.34;5059179;28;20040;-88
2022/05/28 04:36:58;;;;;;;9.85;3.78;;;;;;;11.15;70.12;102064.94;5080923;28;20106;-88
2022/05/28 04:39:23;;;;;;;10.32;2.85;;;;;;;11.24;70.83;102075.31;5087990;28;20027;-89
2022/05/28 04:41:48;;;;;;;11.48;3.30;;;;;;;11.27;70.73;102077.00;5067246;28;20031;-88
2022/05/28 04:44:14;;;;;;;12.05;3.53;;;;;;;11.31;70.76;102060.13;5082184;28;20020;-89
2022/05/28 04:46:39;;;;;;;14.23;3.78;;;;;;;11.38;71.05;102075.00;5068067;28;20031;-88
2022/05/28 04:49:05;;;;;;;12.88;3.63;;;;;;;11.44;71.00;102076.59;5065716;28;20032;-88
2022/05/28 04:51:30;;;;;;;10.48;3.30;;;;;;;11.49;70.61;102077.38;5068172;28;20032;-88
2022/05/28 04:53:56;;;;;;;10.05;2.83;;;;;;;11.56;71.45;102076.28;5069911;28;20028;-88
2022/05/28 04:56:21;;;;;;;15.82;4.15;;;;;;;11.59;70.47;102078.88;5081793;28;20460;-89
2022/05/28 04:58:47;;;;;;;10.73;2.80;;;;;;;11.65;70.31;102073.41;5068692;28;20023;-88
2022/05/28 05:01:13;;;;;;;13.73;3.03;;;;;;;11.71;70.67;102078.59;5077622;28;20119;-88
2022/05/28 05:03:39;;;;;;;11.18;2.72;;;;;;;11.76;70.63;102078.47;5086533;28;20020;-88
2022/05/28 05:06:05;;;;;;;12.23;2.90;;;;;;;11.79;70.55;102081.03;5090850;28;20110;-89
2022/05/28 05:08:30;;;;;;;10.00;3.72;;;;;;;11.84;70.70;102073.84;5086129;28;20039;-87
2022/05/28 05:10:56;;;;;;;7.38;2.38;;;;;;;11.88;70.12;102086.13;5067525;28;20758;-88
2022/05/28 05:13:21;;;;;;;13.45;2.60;;;;;;;11.95;70.37;102090.38;5083318;28;20024;-88
2022/05/28 05:15:47;;;;;;;9.27;3.05;;;;;;;12.00;70.80;102090.25;5083400;28;20016;-88
2022/05/28 05:18:12;;;;;;;12.30;2.42;;;;;;;12.08;70.83;102093.56;5085269;28;20051;-88
2022/05/28 05:20:37;;;;;;;10.68;2.35;;;;;;;12.12;71.06;102094.34;5087010;28;20015;-88
2022/05/28 05:23:03;;;;;;;6.45;1.90;;;;;;;12.21;69.51;102094.97;5086722;28;20024;-88
2022/05/28 05:25:28;;;;;;;8.10;1.77;;;;;;;12.29;68.81;102093.91;5070300;28;20161;-87
2022/05/28 05:27:53;;;;;;;11.30;2.42;;;;;;;12.35;69.87;102091.94;5067303;28;20023;-89
2022/05/28 05:30:19;;;;;;;5.68;1.52;;;;;;;12.44;68.56;102090.81;5062936;28;20032;-89
2022/05/28 05:32:44;;;;;;;6.93;1.85;;;;;;;12.54;70.00;102094.94;5073361;28;20042;-89
2022/05/28 05:35:10;;;;;;;6.95;1.67;;;;;;;12.61;71.32;102096.53;5087764;28;20032;-89
2022/05/28 05:37:35;;;;;;;7.85;1.55;;;;;;;12.59;68.22;102086.84;5088947;28;20030;-88
2022/05/28 05:40:02;;;;;;;6.60;1.45;;;;;;;12.69;66.93;102098.97;5086418;28;20118;-89
2022/05/28 05:42:27;;;;;;;5.10;1.40;;;;;;;12.74;67.36;102097.91;5064204;28;20625;-88
2022/05/28 05:44:53;;;;;;;5.95;2.20;;;;;;;12.79;67.11;102097.78;5085492;28;20028;-88
2022/05/28 05:47:19;;;;;;;8.45;1.27;;;;;;;12.89;65.63;102104.56;5079655;28;20020;-87
2022/05/28 05:49:44;;;;;;;5.97;1.00;;;;;;;12.93;65.13;102100.91;5066952;28;20036;-89
2022/05/28 05:52:10;;;;;;;7.13;1.50;;;;;;;12.98;65.44;102098.97;5067785;28;20028;-88
2022/05/28 05:54:35;;;;;;;8.60;1.42;;;;;;;13.06;64.12;102097.88;5085497;28;20102;-89
2022/05/28 05:57:00;;;;;;;6.65;1.58;;;;;;;13.14;64.75;102106.47;5086663;28;20070;-88
2022/05/28 05:59:26;;;;;;;3.42;1.13;;;;;;;13.23;66.94;102103.56;5090922;28;20478;-89
2022/05/28 06:01:51;;;;;;;6.28;1.45;;;;;;;13.26;63.02;102101.69;5087907;28;20082;-88
2022/05/28 06:04:17;;;;;;;8.70;1.40;;;;;;;13.32;63.39;102105.94;5087863;28;20053;-88
2022/05/28 06:06:42;;;;;;;9.50;1.90;;;;;;;13.37;62.88;102092.50;5083063;28;20062;-87
2022/05/28 06:09:08;;;;;;;6.20;1.20;;;;;;;13.45;62.60;102104.63;5089086;28;20028;-88
2022/05/28 06:11:33;;;;;;;7.25;1.40;;;;;;;13.54;62.99;102108.78;5069146;28;20107;-88
2022/05/28 06:13:59;;;;;;;6.22;1.40;;;;;;;13.60;62.33;102103.25;5069803;28;20036;-88
2022/05/28 06:16:25;;;;;;;6.88;1.10;;;;;;;13.69;61.54;102107.41;5068355;28;20016;-89
2022/05/28 06:18:50;;;;;;;4.80;1.30;;;;;;;13.80;60.08;102107.91;5084091;28;20028;-88
2022/05/28 06:21:16;;;;;;;6.18;1.05;;;;;;;13.96;58.91;102109.16;5090234;28;20036;-88
2022/05/28 06:23:41;;;;;;;7.50;1.10;;;;;;;14.09;57.33;102114.94;5072652;28;20084;-86
2022/05/28 06:26:07;;;;;;;5.90;1.08;;;;;;;14.16;55.45;102119.09;5087798;28;20054;-87
2022/05/28 06:28:33;;;;;;;4.50;0.98;;;;;;;14.26;56.66;102112.53;5076675;28;20051;-88
2022/05/28 06:31:06;;;;;;;5.88;1.05;;;;;;;14.53;56.02;102115.16;5067418;28;20402;-87
2022/05/28 06:33:33;;;;;;;3.75;0.80;;;;;;;14.71;53.55;102113.63;5084376;28;20082;-87
2022/05/28 06:36:00;;;;;;;8.43;1.30;;;;;;;14.84;54.05;102122.91;5084356;28;20179;-87
2022/05/28 06:38:26;;;;;;;5.40;1.10;;;;;;;14.87;53.34;102121.91;5084681;28;20387;-88
2022/05/28 06:40:52;;;;;;;4.40;0.82;;;;;;;14.84;53.68;102130.88;5084960;28;20023;-88
2022/05/28 06:43:18;;;;;;;7.63;2.53;;;;;;;14.86;52.13;102131.69;5088594;28;20479;-88
2022/05/28 06:45:44;;;;;;;8.63;1.30;;;;;;;14.80;52.86;102129.25;5085778;28;20080;-87
2022/05/28 06:48:09;;;;;;;8.30;1.30;;;;;;;14.65;53.62;102122.72;5087510;28;20115;-88
2022/05/28 06:53:20;;;;;;;5.05;1.27;;;;;;;14.92;52.55;102120.81;5089037;28;20050;-89
2022/05/28 06:55:47;;;;;;;5.03;0.90;;;;;;;15.14;51.37;102133.31;5087782;28;20056;-88
2022/05/28 06:58:13;;;;;;;3.55;0.90;;;;;;;15.27;50.38;102130.09;5069088;28;20561;-87
2022/05/28 07:00:39;;;;;;;3.38;0.90;;;;;;;15.41;53.14;102136.69;5085178;28;20464;-89
2022/05/28 07:03:05;;;;;;;4.70;1.00;;;;;;;15.63;51.18;102126.06;5088557;28;20032;-88
2022/05/28 07:05:31;;;;;;;2.70;0.68;;;;;;;15.83;50.29;102144.78;5069491;28;20501;-87
2022/05/28 07:07:56;;;;;;;5.47;1.00;;;;;;;15.72;50.25;102131.91;5087664;28;20043;-88
2022/05/28 07:10:22;;;;;;;7.95;0.90;;;;;;;15.68;50.17;102132.97;5069763;28;20028;-87
2022/05/28 07:12:48;;;;;;;3.22;0.77;;;;;;;15.82;50.60;102145.72;5089727;28;20032;-88
2022/05/28 07:15:13;;;;;;;9.63;1.25;;;;;;;15.99;50.35;102134.34;5085137;28;20476;-89
2022/05/28 07:17:40;;;;;;;5.50;1.10;;;;;;;16.03;49.37;102130.59;5087426;28;20063;-88
2022/05/28 07:20:05;;;;;;;4.32;0.90;;;;;;;15.99;49.96;102131.66;5081717;28;20442;-87
2022/05/28 07:22:31;;;;;;;2.60;1.02;;;;;;;15.82;48.66;102141.25;5087803;28;20119;-88
2022/05/28 07:24:56;;;;;;;7.40;0.98;;;;;;;15.58;49.90;102139.56;5082330;28;20532;-88
2022/05/28 07:27:21;;;;;;;5.50;1.13;;;;;;;15.43;49.54;102149.00;5095590;28;20042;-88
2022/05/28 07:29:47;;;;;;;3.60;0.82;;;;;;;15.35;49.94;102148.47;5069787;28;20031;-88
2022/05/28 07:32:12;;;;;;;5.18;1.17;;;;;;;15.17;49.77;102141.19;5084516;28;20063;-88
2022/05/28 07:34:37;;;;;;;3.33;0.98;;;;;;;15.70;49.22;102140.88;5089439;28;20077;-88
2022/05/28 07:37:03;;;;;;;5.60;1.30;;;;;;;16.21;46.80;102129.81;5070155;28;20543;-88
2022/05/28 07:39:29;;;;;;;5.10;1.10;;;;;;;16.59;47.38;102136.16;5085585;28;20044;-89
2022/05/28 07:41:54;;;;;;;2.80;0.80;;;;;;;17.05;44.03;102131.41;5087582;28;20027;-88
2022/05/28 07:44:20;;;;;;;3.85;1.00;;;;;;;17.12;45.03;102134.69;5088044;28;20324;-89
2022/05/28 07:46:45;;;;;;;5.65;1.25;;;;;;;17.48;44.35;102142.72;5087022;28;20540;-88
2022/05/28 07:49:11;;;;;;;1.85;0.90;;;;;;;17.73;41.43;102137.09;5085521;28;20032;-87
2022/05/28 07:51:37;;;;;;;3.38;0.88;;;;;;;18.65;40.89;102132.34;5084368;28;20028;-88
2022/05/28 07:54:04;;;;;;;3.53;0.85;;;;;;;18.68;41.49;102136.69;5084078;28;20089;-87
2022/05/28 07:56:29;;;;;;;4.65;0.80;;;;;;;18.93;38.78;102126.41;5067351;28;20547;-87
2022/05/28 07:58:59;;;;;;;4.75;0.90;;;;;;;19.24;37.33;102138.13;5088772;28;20099;-88
2022/05/28 08:01:30;;;;;;;5.15;0.73;;;;;;;18.73;39.72;102137.34;5065314;28;20391;-88
2022/05/28 08:03:59;;;;;;;5.35;1.10;;;;;;;18.08;40.23;102143.34;5082120;28;20035;-87
2022/05/28 08:06:24;;;;;;;4.90;1.15;;;;;;;17.63;42.53;102140.28;5069202;28;20030;-88
2022/05/28 08:08:51;;;;;;;4.45;1.00;;;;;;;17.52;43.12;102135.44;5081420;28;20035;-88
2022/05/28 08:11:18;;;;;;;3.65;1.00;;;;;;;18.43;41.23;102131.78;5084964;28;20028;-88
2022/05/28 08:13:43;;;;;;;4.93;0.80;;;;;;;19.80;38.22;102131.34;5077519;28;20055;-88
2022/05/28 08:16:08;;;;;;;4.28;1.08;;;;;;;19.93;37.10;102132.38;5076439;28;20486;-88
2022/05/28 08:18:36;;;;;;;8.82;1.38;;;;;;;20.07;38.03;102126.19;5083892;28;20052;-87
2022/05/28 08:23:47;;;;;;;3.60;0.98;;;;;;;19.40;36.63;102130.94;5072684;28;20043;-88
2022/05/28 08:26:14;;;;;;;5.22;1.40;;;;;;;18.45;39.53;102124.50;5082468;28;20024;-87
2022/05/28 08:28:41;;;;;;;7.05;1.10;;;;;;;19.45;37.67;102130.69;5068116;28;20024;-87
2022/05/28 08:31:06;;;;;;;5.00;1.27;;;;;;;20.11;34.49;102123.22;5061451;28;20490;-88
2022/05/28 08:33:32;;;;;;;5.97;0.90;;;;;;;20.23;35.17;102120.75;5083189;28;20219;-88
2022/05/28 08:35:59;;;;;;;4.65;1.35;;;;;;;19.92;34.83;102132.47;5085378;28;20078;-87
2022/05/28 08:38:27;;;;;;;6.57;1.00;;;;;;;20.43;34.64;102131.16;5083432;28;20399;-88
2022/05/28 08:40:58;;;;;;;2.55;0.90;;;;;;;21.41;34.00;102135.78;5084320;28;20036;-86
2022/05/28 08:43:28;;;;;;;3.15;0.90;;;;;;;22.41;31.01;102114.63;5058524;28;20146;-87
2022/05/28 08:45:54;;;;;;;2.72;1.00;;;;;;;22.33;29.65;102121.53;5066702;28;20131;-87
2022/05/28 08:48:43;;;;;;;3.83;0.82;;;;;;;23.13;30.66;102120.31;5084013;28;20111;-87
2022/05/28 08:51:14;;;;;;;3.63;1.02;;;;;;;23.08;30.62;102127.91;5056933;28;20059;-88
2022/05/28 08:53:49;;;;;;;5.10;1.30;;;;;;;22.09;32.17;102124.91;5076576;28;20052;-88
2022/05/28 08:56:19;;;;;;;4.20;0.90;;;;;;;21.76;32.95;102125.34;5082775;28;20035;-88
2022/05/28 08:58:46;;;;;;;3.97;0.95;;;;;;;21.43;33.35;102123.06;5084955;28;20059;-88
2022/05/28 09:01:15;;;;;;;3.75;1.17;;;;;;;20.56;34.25;102124.13;5078566;28;20032;-89
2022/05/28 09:03:48;;;;;;;5.30;1.55;;;;;;;19.99;35.78;102123.09;5087266;28;20032;-89
2022/05/28 09:06:22;;;;;;;4.72;0.93;;;;;;;19.58;37.02;102124.53;5086735;28;20110;-90
2022/05/28 09:08:53;;;;;;;4.40;0.93;;;;;;;19.27;38.48;102132.59;5083559;28;20089;-88
2022/05/28 09:11:42;;;;;;;4.13;1.20;;;;;;;18.94;39.77;102141.53;5060064;28;20035;-88
2022/05/28 09:14:29;;;;;;;5.05;1.50;;;;;;;18.89;39.19;102134.72;5081987;28;20028;-89
2022/05/28 09:16:58;;;;;;;6.38;1.55;;;;;;;19.16;38.79;102137.66;5079631;28;20039;-88
2022/05/28 09:19:27;;;;;;;3.55;1.20;;;;;;;19.59;37.55;102123.56;5082711;28;20360;-88
2022/05/28 09:21:52;;;;;;;4.57;1.00;;;;;;;19.88;36.28;102135.31;5082157;28;20025;-87
2022/05/28 09:24:21;;;;;;;5.45;1.30;;;;;;;20.13;36.04;102128.50;5084597;28;20016;-89
2022/05/28 09:27:03;;;;;;;6.10;1.20;;;;;;;20.55;38.13;102125.06;5081931;28;20028;-88
2022/05/28 09:29:58;;;;;;;5.78;0.90;;;;;;;20.75;36.32;102120.25;5080872;28;20028;-87
2022/05/28 09:32:46;;;;;;;4.13;1.13;;;;;;;20.76;34.23;102128.25;5072115;28;20505;-88
2022/05/28 09:35:48;;;;;;;3.45;0.90;;;;;;;20.89;34.18;102128.34;5080641;28;20089;-87
2022/05/28 09:38:44;;;;;;;4.20;0.95;;;;;;;21.68;33.65;102119.63;5066051;28;20462;-87
2022/05/28 09:41:24;;;;;;;3.30;1.10;;;;;;;22.04;32.23;102118.13;5084077;28;20460;-87
2022/05/28 09:44:14;;;;;;;2.85;0.90;;;;;;;22.29;33.23;102112.81;5066801;28;20115;-87
2022/05/28 09:46:41;;;;;;;6.20;1.10;;;;;;;22.47;29.76;102110.63;5086823;28;20031;-87
2022/05/28 09:49:23;;;;;;;4.07;1.20;;;;;;;22.94;32.27;102109.13;5058213;28;20301;-88
2022/05/28 09:51:53;;;;;;;5.25;1.30;;;;;;;22.91;30.15;102115.63;5068249;28;20036;-88
2022/05/28 09:54:23;;;;;;;5.20;1.30;;;;;;;22.63;29.49;102126.63;5082697;28;21795;-87
2022/05/28 09:57:14;;;;;;;5.50;1.25;;;;;;;22.09;31.10;102115.97;5082567;28;20375;-88
2022/05/28 09:59:42;;;;;;;5.75;1.20;;;;;;;22.02;32.44;102120.06;5085994;28;20039;-87
2022/05/28 10:02:33;;;;;;;3.35;1.10;;;;;;;22.22;32.10;102119.56;5064686;28;20028;-87
2022/05/28 10:05:20;;;;;;;9.00;1.55;;;;;;;22.56;33.43;102110.00;5066372;28;20035;-86
2022/05/28 10:07:53;;;;;;;11.02;1.25;;;;;;;23.04;32.68;102114.75;5079165;28;20019;-87
2022/05/28 10:10:29;;;;;;;4.97;0.98;;;;;;;23.26;28.84;102119.41;5086843;28;20024;-87
2022/05/28 10:13:18;;;;;;;2.42;0.88;;;;;;;22.84;30.07;102108.03;5061590;28;20470;-87
2022/05/28 10:15:52;;;;;;;5.00;0.93;;;;;;;23.05;30.39;102111.06;5080559;28;20485;-88
2022/05/28 10:18:22;;;;;;;3.95;1.35;;;;;;;22.52;30.46;102091.44;5083484;28;20114;-88
2022/05/28 10:21:05;;;;;;;2.67;0.73;;;;;;;22.64;32.42;102096.84;5088550;28;20024;-88
2022/05/28 10:23:33;;;;;;;1.90;0.80;;;;;;;22.36;30.22;102110.53;5089738;28;20023;-87
2022/05/28 10:25:59;;;;;;;5.47;1.02;;;;;;;21.58;30.05;102095.16;5070477;28;20079;-88
2022/05/28 10:28:30;;;;;;;3.65;1.20;;;;;;;21.22;30.45;102109.19;5067524;28;20038;-88
2022/05/28 10:30:56;;;;;;;2.88;0.82;;;;;;;21.60;30.47;102101.31;5061848;28;20508;-87
2022/05/28 10:33:25;;;;;;;5.90;1.00;;;;;;;22.11;28.99;102096.09;5082787;28;20016;-87
2022/05/28 10:35:52;;;;;;;10.50;5.38;;;;;;;22.85;29.54;102102.56;5065174;28;20033;-87
2022/05/28 10:38:23;;;;;;;8.88;3.97;;;;;;;23.35;28.40;102107.94;5084122;28;20036;-88
2022/05/28 10:40:54;;;;;;;2.80;1.02;;;;;;;23.19;26.61;102097.41;5066186;28;20038;-88
2022/05/28 10:43:25;;;;;;;6.10;1.08;;;;;;;23.12;27.61;102093.44;5080653;28;20115;-87
2022/05/28 10:45:59;;;;;;;6.60;1.45;;;;;;;23.22;27.60;102102.56;5067566;28;20036;-88
2022/05/28 10:48:33;;;;;;;6.35;1.30;;;;;;;22.73;28.90;102089.94;5070443;28;20391;-88
2022/05/28 10:51:02;;;;;;;4.22;0.90;;;;;;;23.07;28.78;102095.63;5086107;28;20600;-88
2022/05/28 10:53:53;;;;;;;5.00;1.05;;;;;;;22.92;28.75;102103.84;5084102;28;20043;-87
2022/05/28 10:56:38;;;;;;;4.20;1.20;;;;;;;22.49;28.85;102097.06;5067161;28;20060;-87
2022/05/28 10:59:18;;;;;;;4.65;1.55;;;;;;;22.72;28.02;102100.84;5070804;28;20530;-87
2022/05/28 11:02:06;;;;;;;5.38;1.42;;;;;;;23.36;28.05;102091.66;5067975;28;20081;-87
2022/05/28 11:04:59;;;;;;;4.00;1.00;;;;;;;24.30;28.53;102079.97;5067359;28;20046;-87
2022/05/28 11:07:48;;;;;;;6.05;1.60;;;;;;;24.58;27.13;102083.25;5070088;28;20028;-87
2022/05/28 11:10:36;;;;;;;2.92;0.75;;;;;;;23.88;26.31;102085.03;5085783;28;20028;-86
2022/05/28 11:13:16;;;;;;;7.88;1.35;;;;;;;22.97;28.63;102090.03;5071399;28;20020;-88
2022/05/28 11:16:09;;;;;;;7.05;1.38;;;;;;;22.98;29.53;102082.78;5084320;28;20387;-88
2022/05/28 11:19:06;;;;;;;3.13;0.90;;;;;;;23.33;28.59;102085.59;5079054;28;20095;-87
2022/05/28 11:22:19;;;;;;;6.57;1.33;;;;;;;24.37;27.25;102081.22;5073681;28;20596;-87
2022/05/28 11:24:53;;;;;;;5.78;1.35;;;;;;;24.85;23.84;102078.28;5065662;28;20491;-87
2022/05/28 11:27:30;;;;;;;4.50;1.45;;;;;;;24.69;25.61;102075.13;5080106;28;20035;-88
2022/05/28 11:30:21;;;;;;;3.53;1.17;;;;;;;23.93;27.14;102077.44;5084352;28;20576;-89
2022/05/28 11:32:54;;;;;;;7.03;1.10;;;;;;;23.72;26.74;102073.66;5069686;28;20556;-87
2022/05/28 11:35:42;;;;;;;6.07;1.10;;;;;;;23.93;26.38;102072.03;5071922;28;20036;-87
2022/05/28 11:38:17;;;;;;;4.68;1.10;;;;;;;24.20;26.19;102062.75;5067343;28;20047;-88
2022/05/28 11:40:55;;;;;;;4.97;1.10;;;;;;;24.40;25.92;102056.69;5079405;28;20078;-88